Date,TemperatureHighF,TemperatureAvgF,TemperatureLowF,DewpointHighF,DewpointAvgF,DewpointLowF,HumidityHigh,HumidityAvg,HumidityLow,PressureMaxIn,PressureMinIn,WindSpeedMaxMPH,WindSpeedAvgMPH,GustSpeedMaxMPH,PrecipitationSumIn
2013-1-1,37.0,34.1,31.0,37.0,34.1,31.0,100,100,100,0.00,40.00,2,1,3,0.00
2013-1-2,36.0,32.9,32.0,36.0,32.9,32.0,100,100,100,0.00,40.00,1,0,2,0.00
2013-1-3,33.0,31.8,30.0,33.0,31.8,30.0,100,100,100,0.00,40.00,1,0,1,0.00
2013-1-4,40.0,38.4,35.0,39.0,-1.4,-99.9,100,71,100,0.00,40.00,1,1,2,0.00
2013-1-5,43.0,39.3,35.0,43.0,39.3,35.0,100,100,100,0.00,40.00,5,1,7,0.00
2013-1-6,39.0,35.8,31.0,39.0,35.8,31.0,100,100,100,0.00,40.00,1,1,2,0.00
2013-1-7,46.0,40.0,34.0,46.0,40.0,34.0,100,100,100,0.00,40.00,3,1,5,0.00
2013-1-8,44.0,39.2,34.0,44.0,24.8,-99.9,100,90,100,0.00,40.00,1,1,2,0.00
2013-1-9,44.0,38.2,31.0,44.0,38.2,31.0,100,100,100,0.00,40.00,2,1,3,0.00
2013-1-10,33.0,31.3,28.0,33.0,31.3,28.0,100,100,100,0.00,40.00,3,1,5,0.00
2013-1-11,32.0,28.9,24.0,32.0,28.9,24.0,100,100,100,0.00,40.00,2,0,3,0.00
2013-1-12,31.0,25.7,23.0,31.0,25.7,23.0,100,100,100,0.00,40.00,1,0,1,0.00
2013-1-13,32.0,27.9,21.0,32.0,27.9,21.0,100,100,100,0.00,40.00,0,0,1,0.00
2013-1-14,34.0,31.9,31.0,34.0,31.9,31.0,100,100,100,0.00,40.00,1,0,1,0.00
2013-1-15,33.0,29.7,26.0,33.0,29.7,26.0,100,100,100,0.00,40.00,1,0,1,0.00
2013-1-16,33.0,31.6,30.0,33.0,31.6,30.0,100,100,100,0.00,40.00,1,0,1,0.00
2013-1-17,33.0,31.2,29.0,33.0,31.2,29.0,100,100,100,0.00,40.00,3,0,5,0.00
2013-1-18,33.0,30.7,27.0,33.0,30.7,27.0,100,100,100,0.00,40.00,1,0,2,0.00
2013-1-19,34.0,31.3,30.0,34.0,31.3,30.0,100,100,100,0.00,40.00,1,0,1,0.00
2013-1-20,32.0,29.6,28.0,32.0,29.6,28.0,100,100,100,0.00,40.00,1,0,2,0.00
2013-1-21,32.0,29.6,24.0,32.0,29.6,24.0,100,100,100,0.00,40.00,2,0,3,0.00
2013-1-22,33.0,31.7,31.0,33.0,31.7,31.0,100,100,100,0.00,40.00,2,0,3,0.00
2013-1-23,37.0,34.3,32.0,37.0,34.3,32.0,100,100,100,0.00,40.00,1,0,1,0.00
2013-1-24,36.0,32.2,29.0,36.0,32.2,29.0,100,100,100,0.00,40.00,1,0,1,0.00
2013-1-25,39.0,32.8,31.0,39.0,32.8,31.0,100,100,100,0.00,40.00,2,0,3,0.00
2013-1-26,40.0,35.1,31.0,40.0,35.1,31.0,100,100,100,0.00,40.00,1,0,2,0.00
2013-1-27,40.0,35.3,31.0,40.0,35.3,31.0,100,100,100,0.00,40.00,1,0,1,0.00
2013-1-28,39.0,36.9,33.0,39.0,36.9,33.0,100,100,100,0.00,40.00,1,1,3,0.00
2013-1-29,40.0,39.6,39.0,40.0,39.6,39.0,100,100,100,0.00,40.00,1,1,2,0.00
2013-1-31,46.0,43.8,41.0,46.0,43.8,41.0,100,100,100,0.00,40.00,1,0,2,0.00